Time;durP1;ratioP1;P1;durP2;ratioP2;P2;SDS_P1;SDS_P2;PMS_P1;PMS_P2;Temp;Humidity;BMP_temperature;BMP_pressure;BME280_temperature;BME280_humidity;BME280_pressure;Samples;Min_cycle;Max_cycle;Signal;HPM_P1;HPM_P2
2023/05/25 00:01:34;;;;;;;7.75;1.75;;;;;;;9.80;100.00;101980.19;5040899;28;20033;-57
2023/05/25 00:04:02;;;;;;;6.75;1.95;;;;;;;9.78;100.00;101975.06;5031899;28;20025;-57
2023/05/25 00:06:28;;;;;;;4.60;1.73;;;;;;;9.76;100.00;101984.97;5030511;28;20029;-56
2023/05/25 00:08:56;;;;;;;3.60;2.28;;;;;;;9.76;100.00;101986.78;5033077;28;20060;-55
2023/05/25 00:11:22;;;;;;;10.20;2.83;;;;;;;9.75;100.00;102001.81;5036382;28;20128;-56
2023/05/25 00:13:48;;;;;;;3.53;1.88;;;;;;;9.71;100.00;102005.75;5042423;28;20041;-56
2023/05/25 00:16:14;;;;;;;5.30;2.88;;;;;;;9.75;100.00;102004.47;5039523;28;20044;-55
2023/05/25 00:18:39;;;;;;;5.47;1.92;;;;;;;9.76;100.00;102008.81;5022458;28;20024;-52
2023/05/25 00:21:06;;;;;;;3.15;1.63;;;;;;;9.70;100.00;102006.72;5041165;28;20040;-55
2023/05/25 00:23:31;;;;;;;2.50;1.10;;;;;;;9.75;100.00;102006.28;5042181;28;20045;-56
2023/05/25 00:25:57;;;;;;;2.40;1.77;;;;;;;9.81;100.00;102000.41;5042088;28;20401;-57
2023/05/25 00:28:23;;;;;;;6.18;1.85;;;;;;;9.77;100.00;102002.50;5042825;28;20056;-56
2023/05/25 00:30:48;;;;;;;3.88;2.22;;;;;;;9.74;100.00;101994.88;5042010;28;20021;-57
2023/05/25 00:33:15;;;;;;;1.90;1.63;;;;;;;9.67;100.00;102001.72;5039493;28;20321;-57
2023/05/25 00:35:43;;;;;;;3.67;1.45;;;;;;;9.59;100.00;102007.75;5050107;28;20268;-56
2023/05/25 00:38:16;;;;;;;3.55;1.63;;;;;;;9.65;100.00;102001.03;5036147;28;20039;-57
2023/05/25 00:40:42;;;;;;;3.38;1.90;;;;;;;9.69;100.00;101996.31;5036141;28;20025;-56
2023/05/25 00:43:08;;;;;;;4.63;2.65;;;;;;;9.65;100.00;102003.69;5048062;28;20106;-55
2023/05/25 00:45:33;;;;;;;2.60;1.80;;;;;;;9.59;100.00;102004.28;5040893;28;20071;-52
2023/05/25 00:47:59;;;;;;;2.60;1.33;;;;;;;9.57;100.00;102003.59;5038504;28;20053;-52
2023/05/25 00:50:45;;;;;;;2.47;1.85;;;;;;;9.57;100.00;102008.88;5043236;28;20378;-57
2023/05/25 00:53:12;;;;;;;10.45;2.17;;;;;;;9.49;100.00;102012.28;5050191;28;20048;-56
2023/05/25 00:55:42;;;;;;;4.28;2.25;;;;;;;9.40;100.00;102018.47;5045284;28;21345;-53
2023/05/25 00:58:10;;;;;;;3.42;2.10;;;;;;;9.37;100.00;102013.44;5026171;28;20478;-57
2023/05/25 01:00:37;;;;;;;4.55;1.88;;;;;;;9.45;100.00;102018.00;5026951;28;20147;-54
2023/05/25 01:03:10;;;;;;;1.98;1.77;;;;;;;9.48;100.00;102017.72;5048640;28;20017;-56
2023/05/25 01:05:41;;;;;;;4.55;2.55;;;;;;;9.45;100.00;102016.22;5039437;28;20093;-54
2023/05/25 01:08:08;;;;;;;3.05;1.67;;;;;;;9.41;100.00;102019.28;5038897;28;20026;-55
2023/05/25 01:10:36;;;;;;;4.47;1.90;;;;;;;9.37;100.00;102024.88;5041492;28;20543;-52
2023/05/25 01:13:03;;;;;;;2.65;1.50;;;;;;;9.29;100.00;102024.78;5038471;28;20045;-56
2023/05/25 01:15:29;;;;;;;3.28;1.23;;;;;;;9.23;100.00;102027.97;5042790;28;20069;-54
2023/05/25 01:17:58;;;;;;;3.72;2.25;;;;;;;9.25;100.00;102026.03;5046949;28;20033;-54
2023/05/25 01:20:26;;;;;;;2.45;2.22;;;;;;;9.26;100.00;102026.84;5045296;28;20425;-54
2023/05/25 01:23:12;;;;;;;3.45;2.70;;;;;;;9.22;100.00;102028.97;5044919;28;20520;-51
2023/05/25 01:25:49;;;;;;;1.60;1.50;;;;;;;9.21;100.00;102032.56;5038663;28;20068;-54
2023/05/25 01:28:27;;;;;;;8.35;1.50;;;;;;;9.23;100.00;102033.28;5035900;28;20112;-55
2023/05/25 01:30:55;;;;;;;5.25;1.60;;;;;;;9.21;100.00;102039.69;5042984;28;20032;-55
2023/05/25 01:33:21;;;;;;;3.90;1.15;;;;;;;9.14;100.00;102039.44;5041311;28;20583;-54
2023/05/25 01:35:47;;;;;;;4.22;1.42;;;;;;;9.12;100.00;102038.75;5043070;28;20527;-55
2023/05/25 01:38:13;;;;;;;2.25;2.05;;;;;;;9.08;100.00;102035.53;5041787;28;20041;-55
2023/05/25 01:40:38;;;;;;;2.45;1.73;;;;;;;9.08;100.00;102040.00;5026100;28;20040;-57
2023/05/25 01:43:04;;;;;;;3.05;1.73;;;;;;;9.07;100.00;102038.34;5043176;28;20063;-54
2023/05/25 01:45:31;;;;;;;2.45;1.80;;;;;;;9.08;100.00;102045.28;5039580;28;20036;-55
2023/05/25 01:48:24;;;;;;;2.75;1.48;;;;;;;9.03;100.00;102047.53;5044320;28;20036;-57
2023/05/25 01:51:01;;;;;;;3.13;1.92;;;;;;;8.93;100.00;102042.25;5041945;28;20478;-55
2023/05/25 01:53:47;;;;;;;6.07;1.40;;;;;;;8.88;100.00;102042.69;5038544;28;20033;-57
2023/05/25 01:56:13;;;;;;;2.88;1.25;;;;;;;8.89;100.00;102052.28;5033681;28;20033;-54
2023/05/25 01:58:41;;;;;;;5.85;1.55;;;;;;;8.93;100.00;102047.53;5042741;28;20426;-56
2023/05/25 02:01:08;;;;;;;3.30;1.38;;;;;;;8.92;100.00;102045.88;5038388;28;20029;-56
2023/05/25 02:03:35;;;;;;;3.92;1.90;;;;;;;8.91;100.00;102050.34;5040202;28;20040;-57
2023/05/25 02:06:01;;;;;;;3.05;2.63;;;;;;;8.89;100.00;102047.00;5035916;28;20658;-52
2023/05/25 02:08:26;;;;;;;8.10;2.03;;;;;;;8.86;100.00;102047.28;5042073;28;20036;-55
2023/05/25 02:10:52;;;;;;;3.20;1.45;;;;;;;8.80;100.00;102045.19;5043414;28;20032;-56
2023/05/25 02:13:17;;;;;;;6.95;1.40;;;;;;;8.77;100.00;102050.78;5043596;28;20040;-55
2023/05/25 02:15:42;;;;;;;2.05;1.60;;;;;;;8.78;100.00;102056.88;5042901;28;20480;-54
2023/05/25 02:18:07;;;;;;;3.17;1.45;;;;;;;8.83;100.00;102054.66;5044622;28;20029;-57
2023/05/25 02:20:35;;;;;;;2.55;1.80;;;;;;;8.93;100.00;102056.34;5021876;28;20033;-56
2023/05/25 02:23:00;;;;;;;7.50;2.15;;;;;;;9.10;100.00;102061.88;5039405;28;20067;-57
2023/05/25 02:25:26;;;;;;;5.70;2.17;;;;;;;9.26;100.00;102059.44;5043296;28;20381;-54
2023/05/25 02:27:51;;;;;;;3.25;1.60;;;;;;;9.35;100.00;102052.47;5040378;28;20033;-51
2023/05/25 02:30:16;;;;;;;2.65;1.65;;;;;;;9.43;100.00;102051.75;5040387;28;20059;-57
2023/05/25 02:32:42;;;;;;;2.63;1.77;;;;;;;9.58;100.00;102047.66;5042107;28;20037;-57
2023/05/25 02:35:08;;;;;;;4.28;2.55;;;;;;;9.70;100.00;102042.97;5039803;28;20044;-56
2023/05/25 02:37:33;;;;;;;4.68;2.38;;;;;;;9.82;100.00;102050.59;5041501;28;20052;-57
2023/05/25 02:39:59;;;;;;;2.35;1.42;;;;;;;9.97;100.00;102050.94;5041409;28;20037;-56
2023/05/25 02:42:24;;;;;;;3.95;2.95;;;;;;;10.05;100.00;102040.41;5041538;28;20080;-57
2023/05/25 02:44:49;;;;;;;3.88;1.58;;;;;;;10.12;100.00;102047.75;5044370;28;20063;-57
2023/05/25 02:47:16;;;;;;;2.38;2.17;;;;;;;10.17;100.00;102048.13;5041296;28;20107;-54
2023/05/25 02:49:42;;;;;;;2.78;1.40;;;;;;;10.28;100.00;102049.78;5043813;28;20029;-59
2023/05/25 02:52:07;;;;;;;2.63;1.73;;;;;;;10.30;100.00;102047.78;5036307;28;20086;-53
2023/05/25 02:54:33;;;;;;;2.70;2.20;;;;;;;10.24;100.00;102050.03;5044726;28;20346;-54
2023/05/25 02:56:58;;;;;;;3.63;2.03;;;;;;;10.21;100.00;102050.34;5042298;28;20424;-53
2023/05/25 02:59:23;;;;;;;5.25;2.25;;;;;;;10.25;100.00;102051.72;5040954;28;20036;-58
2023/05/25 03:01:49;;;;;;;3.30;1.45;;;;;;;10.29;100.00;102046.16;5040451;28;20059;-55
2023/05/25 03:04:15;;;;;;;2.00;1.75;;;;;;;10.32;100.00;102049.31;5036625;28;20037;-53
2023/05/25 03:06:40;;;;;;;1.42;1.33;;;;;;;10.39;100.00;102053.03;5041304;28;20040;-58
2023/05/25 03:09:06;;;;;;;4.18;1.30;;;;;;;10.48;100.00;102054.78;5037831;28;20121;-54
2023/05/25 03:11:31;;;;;;;3.95;2.42;;;;;;;10.60;100.00;102060.69;5032521;28;20365;-57
2023/05/25 03:13:57;;;;;;;6.28;2.25;;;;;;;10.64;100.00;102054.09;5035676;28;20537;-58
2023/05/25 03:16:22;;;;;;;3.33;2.22;;;;;;;10.72;100.00;102057.81;5033953;28;20033;-53
2023/05/25 03:18:48;;;;;;;6.35;3.17;;;;;;;10.75;100.00;102052.19;5034470;28;20042;-54
2023/05/25 03:21:13;;;;;;;2.75;1.90;;;;;;;10.79;100.00;102057.03;5038581;28;20021;-54
2023/05/25 03:23:38;;;;;;;8.18;2.60;;;;;;;10.83;100.00;102050.41;5041192;28;20151;-57
2023/05/25 03:26:04;;;;;;;4.80;2.60;;;;;;;10.88;100.00;102057.94;5041876;28;20034;-53
2023/05/25 03:28:29;;;;;;;2.90;1.70;;;;;;;10.91;100.00;102053.13;5036145;28;20039;-56
2023/05/25 03:30:55;;;;;;;3.97;1.77;;;;;;;10.98;100.00;102049.88;5035892;28;20107;-55
2023/05/25 03:33:20;;;;;;;2.03;1.45;;;;;;;10.99;100.00;102049.69;5040970;28;20587;-54
2023/05/25 03:35:46;;;;;;;2.72;1.25;;;;;;;11.01;100.00;102042.44;5041696;28;20036;-57
2023/05/25 03:38:11;;;;;;;5.00;2.25;;;;;;;11.04;100.00;102046.59;5041976;28;20029;-55
2023/05/25 03:40:36;;;;;;;3.55;2.00;;;;;;;11.01;100.00;102053.03;5041728;28;20040;-53
2023/05/25 03:43:02;;;;;;;7.45;2.53;;;;;;;11.04;100.00;102051.91;5012332;28;20405;-58
2023/05/25 03:45:27;;;;;;;3.38;1.60;;;;;;;11.06;100.00;102050.75;5042829;28;20125;-57
2023/05/25 03:47:53;;;;;;;4.18;2.55;;;;;;;11.10;100.00;102049.47;5041156;28;20048;-58
2023/05/25 03:50:18;;;;;;;7.88;2.08;;;;;;;11.12;100.00;102052.78;5037479;28;20021;-59
2023/05/25 03:52:43;;;;;;;4.80;1.70;;;;;;;11.19;100.00;102057.47;5035776;28;20381;-55
2023/05/25 03:55:09;;;;;;;2.70;1.67;;;;;;;11.24;100.00;102058.66;5040264;28;20059;-57
2023/05/25 03:57:34;;;;;;;7.03;2.42;;;;;;;11.22;100.00;102055.31;5037769;28;20029;-58
2023/05/25 03:59:59;;;;;;;2.88;2.00;;;;;;;11.24;100.00;102057.84;5038058;28;20450;-58
2023/05/25 04:02:25;;;;;;;3.38;1.92;;;;;;;11.26;100.00;102066.50;5040379;28;20243;-57
2023/05/25 04:04:52;;;;;;;6.30;2.10;;;;;;;11.29;100.00;102063.50;5041770;28;20048;-55
2023/05/25 04:07:18;;;;;;;2.20;1.52;;;;;;;11.32;100.00;102058.72;5038399;28;20029;-52
2023/05/25 04:09:44;;;;;;;3.08;1.13;;;;;;;11.34;100.00;102063.88;5041714;28;20036;-53
2023/05/25 04:12:09;;;;;;;7.47;2.58;;;;;;;11.38;100.00;102059.91;5038309;28;20056;-54
2023/05/25 04:14:35;;;;;;;3.05;2.30;;;;;;;11.39;100.00;102056.28;5040632;28;20037;-56
2023/05/25 04:17:00;;;;;;;2.13;1.92;;;;;;;11.42;100.00;102063.91;5043217;28;20040;-53
2023/05/25 04:19:25;;;;;;;15.85;2.67;;;;;;;11.48;100.00;102062.44;5042101;28;20029;-53
2023/05/25 04:21:51;;;;;;;8.43;3.20;;;;;;;11.49;100.00;102062.31;5041495;28;20040;-54
2023/05/25 04:24:16;;;;;;;2.47;2.05;;;;;;;11.49;100.00;102062.31;5041044;28;20045;-57
2023/05/25 04:26:42;;;;;;;2.50;2.05;;;;;;;11.53;100.00;102057.50;5039431;28;20036;-56
2023/05/25 04:29:08;;;;;;;5.40;1.60;;;;;;;11.52;100.00;102051.34;5037868;28;20097;-56
2023/05/25 04:31:34;;;;;;;2.35;2.10;;;;;;;11.51;100.00;102057.66;5039729;28;20017;-57
2023/05/25 04:34:01;;;;;;;1.90;1.73;;;;;;;11.52;100.00;102059.31;5043688;28;20040;-55
2023/05/25 04:36:26;;;;;;;2.80;2.50;;;;;;;11.62;100.00;102061.88;5045625;28;20029;-55
2023/05/25 04:38:53;;;;;;;2.90;1.80;;;;;;;11.77;100.00;102064.72;5047389;28;20063;-52
2023/05/25 04:41:19;;;;;;;2.28;1.70;;;;;;;11.71;100.00;102065.38;5045404;28;20060;-56
2023/05/25 04:43:44;;;;;;;4.05;1.75;;;;;;;11.74;100.00;102071.19;5038925;28;20517;-57
2023/05/25 04:46:12;;;;;;;6.25;1.48;;;;;;;11.74;100.00;102065.88;5044120;28;20036;-54
2023/05/25 04:48:38;;;;;;;3.42;1.88;;;;;;;11.75;100.00;102074.72;5042924;28;20431;-53
2023/05/25 04:51:05;;;;;;;4.80;1.60;;;;;;;11.75;100.00;102069.41;5041965;28;20465;-56
2023/05/25 04:53:31;;;;;;;3.60;1.90;;;;;;;11.76;100.00;102074.53;5035203;28;20572;-55
2023/05/25 04:55:57;;;;;;;4.53;1.88;;;;;;;11.77;100.00;102080.66;5042203;28;20179;-56
2023/05/25 04:58:23;;;;;;;6.25;2.17;;;;;;;11.78;100.00;102077.88;5042767;28;20154;-54
2023/05/25 05:00:48;;;;;;;1.80;1.55;;;;;;;11.83;100.00;102082.72;5045261;28;20397;-54
2023/05/25 05:03:14;;;;;;;2.13;1.67;;;;;;;11.92;100.00;102083.59;5044160;28;20090;-55
2023/05/25 05:05:39;;;;;;;2.00;1.90;;;;;;;12.00;100.00;102084.47;5044083;28;20078;-56
2023/05/25 05:08:04;;;;;;;5.97;2.17;;;;;;;12.00;100.00;102079.16;5044818;28;20424;-56
2023/05/25 05:10:30;;;;;;;1.90;1.45;;;;;;;12.00;100.00;102084.47;5031876;28;20409;-55
2023/05/25 05:12:55;;;;;;;4.63;2.20;;;;;;;12.01;100.00;102087.97;5040380;28;20025;-50
2023/05/25 05:15:20;;;;;;;3.88;1.77;;;;;;;12.10;100.00;102089.63;5040716;28;20037;-52
2023/05/25 05:17:46;;;;;;;3.15;1.58;;;;;;;12.18;100.00;102094.13;5034870;28;20073;-56
2023/05/25 05:20:12;;;;;;;2.00;1.45;;;;;;;12.25;100.00;102089.84;5040570;28;20029;-55
2023/05/25 05:22:37;;;;;;;3.75;1.90;;;;;;;12.31;100.00;102099.81;5036294;28;20025;-57
2023/05/25 05:25:03;;;;;;;2.92;1.95;;;;;;;12.41;100.00;102092.53;5037881;28;20029;-54
2023/05/25 05:27:29;;;;;;;4.95;1.35;;;;;;;12.47;100.00;102084.88;5045434;28;20681;-52
2023/05/25 05:29:54;;;;;;;3.70;1.83;;;;;;;12.55;100.00;102092.91;5036824;28;20286;-53
2023/05/25 05:32:20;;;;;;;3.40;1.20;;;;;;;12.63;100.00;102099.06;5038224;28;20459;-54
2023/05/25 05:34:45;;;;;;;3.15;1.80;;;;;;;12.68;100.00;102095.06;5044771;28;20035;-57
2023/05/25 05:37:10;;;;;;;2.10;1.88;;;;;;;12.76;100.00;102098.56;5043278;28;20028;-53
2023/05/25 05:39:36;;;;;;;6.97;2.00;;;;;;;12.84;100.00;102098.56;5042950;28;20110;-54
2023/05/25 05:42:01;;;;;;;2.55;1.48;;;;;;;12.91;100.00;102111.19;5039310;28;20074;-54
2023/05/25 05:44:26;;;;;;;3.83;1.42;;;;;;;12.95;100.00;102101.88;5037763;28;20077;-55
2023/05/25 05:46:58;;;;;;;3.90;1.67;;;;;;;13.03;100.00;102109.88;5040616;28;20393;-51
2023/05/25 05:49:24;;;;;;;4.00;1.48;;;;;;;13.12;100.00;102116.84;5043603;28;20033;-53
2023/05/25 05:51:49;;;;;;;2.60;1.13;;;;;;;13.22;100.00;102120.19;5042054;28;20043;-54
2023/05/25 05:54:15;;;;;;;6.65;1.42;;;;;;;13.33;100.00;102126.19;5035868;28;20506;-55
2023/05/25 05:56:40;;;;;;;12.10;2.45;;;;;;;13.38;100.00;102116.69;5039810;28;20033;-55
2023/05/25 05:59:05;;;;;;;3.40;2.03;;;;;;;13.50;100.00;102125.13;5041736;28;20100;-57
2023/05/25 06:01:31;;;;;;;3.13;1.67;;;;;;;13.56;100.00;102128.97;5036073;28;20040;-54
2023/05/25 06:03:57;;;;;;;4.00;1.75;;;;;;;13.68;100.00;102128.44;5040193;28;20382;-52
2023/05/25 06:06:22;;;;;;;3.28;1.77;;;;;;;13.78;100.00;102132.72;5038817;28;20029;-58
2023/05/25 06:08:47;;;;;;;4.65;1.15;;;;;;;13.91;100.00;102125.00;5036044;28;20029;-57
2023/05/25 06:11:13;;;;;;;3.05;1.77;;;;;;;14.07;100.00;102135.63;5033969;28;20043;-53
2023/05/25 06:13:38;;;;;;;3.10;1.25;;;;;;;14.19;100.00;102120.03;5029810;28;20033;-55
2023/05/25 06:16:04;;;;;;;5.55;1.70;;;;;;;14.26;100.00;102122.84;5033543;28;20043;-54
2023/05/25 06:18:29;;;;;;;4.25;1.63;;;;;;;14.38;100.00;102116.94;5031436;28;20128;-52
2023/05/25 06:20:54;;;;;;;2.88;1.77;;;;;;;14.49;100.00;102123.72;5042489;28;20095;-56
2023/05/25 06:23:20;;;;;;;5.13;1.38;;;;;;;14.57;100.00;102115.69;5039642;28;20031;-52
2023/05/25 06:25:45;;;;;;;7.07;1.98;;;;;;;14.69;100.00;102107.25;5039842;28;20047;-57
2023/05/25 06:28:11;;;;;;;5.47;1.85;;;;;;;14.81;100.00;102111.16;5035745;28;20079;-50
2023/05/25 06:30:36;;;;;;;4.47;1.48;;;;;;;14.89;100.00;102111.09;5041362;28;20392;-57
2023/05/25 06:33:01;;;;;;;5.47;1.27;;;;;;;14.95;100.00;102107.72;5035957;28;20041;-56
2023/05/25 06:35:27;;;;;;;3.47;1.00;;;;;;;14.94;100.00;102108.72;5038830;28;20091;-55
2023/05/25 06:37:52;;;;;;;6.63;1.95;;;;;;;14.85;100.00;102104.47;5042417;28;20028;-52
2023/05/25 06:40:18;;;;;;;1.27;1.13;;;;;;;14.86;100.00;102108.78;5042379;28;20397;-54
2023/05/25 06:42:43;;;;;;;4.80;0.73;;;;;;;14.85;100.00;102111.66;5035077;28;20061;-55
2023/05/25 06:45:09;;;;;;;7.97;1.25;;;;;;;14.85;100.00;102117.00;5037773;28;20048;-57
2023/05/25 06:47:35;;;;;;;15.75;1.73;;;;;;;14.90;100.00;102104.75;5042229;28;20037;-56
2023/05/25 06:50:00;;;;;;;2.13;1.30;;;;;;;14.91;100.00;102116.25;5036745;28;20036;-55
2023/05/25 06:52:29;;;;;;;4.22;1.50;;;;;;;14.90;100.00;102119.97;5042632;28;20036;-54
2023/05/25 06:54:55;;;;;;;2.10;0.95;;;;;;;14.96;100.00;102119.22;5041055;28;20029;-54
2023/05/25 06:57:21;;;;;;;3.72;1.67;;;;;;;15.07;100.00;102116.13;5039380;28;20033;-55
2023/05/25 06:59:47;;;;;;;7.43;2.28;;;;;;;15.19;100.00;102122.69;5033422;28;20557;-54
2023/05/25 07:02:12;;;;;;;4.60;1.10;;;;;;;15.30;100.00;102121.41;5036048;28;20044;-56
2023/05/25 07:04:37;;;;;;;6.25;1.50;;;;;;;15.37;100.00;102119.66;5038223;28;20596;-55
2023/05/25 07:07:03;;;;;;;6.95;1.63;;;;;;;15.55;100.00;102123.84;5040171;28;20049;-57
2023/05/25 07:09:28;;;;;;;6.63;1.83;;;;;;;15.64;100.00;102128.06;5039391;28;20029;-54
2023/05/25 07:11:54;;;;;;;8.63;1.80;;;;;;;15.72;100.00;102128.03;5039080;28;20047;-56
2023/05/25 07:14:19;;;;;;;4.28;0.93;;;;;;;15.72;100.00;102129.84;5039255;28;20026;-55
2023/05/25 07:16:45;;;;;;;3.83;0.90;;;;;;;15.82;100.00;102131.22;5042989;28;20252;-57
2023/05/25 07:19:10;;;;;;;8.05;1.90;;;;;;;15.95;100.00;102130.56;5037481;28;20037;-51
2023/05/25 07:21:36;;;;;;;4.78;1.10;;;;;;;16.04;100.00;102131.31;5040716;28;20028;-57
2023/05/25 07:24:02;;;;;;;2.55;0.88;;;;;;;16.10;100.00;102128.69;5035898;28;20060;-55
2023/05/25 07:26:27;;;;;;;5.78;1.23;;;;;;;16.07;100.00;102128.25;5043053;28;20056;-53
2023/05/25 07:28:53;;;;;;;6.05;1.80;;;;;;;16.09;100.00;102123.56;5044298;28;20025;-56
2023/05/25 07:31:18;;;;;;;2.15;1.10;;;;;;;16.16;100.00;102124.47;5038880;28;20037;-55
2023/05/25 07:33:43;;;;;;;3.50;0.80;;;;;;;16.33;100.00;102125.88;5039504;28;20060;-56
2023/05/25 07:36:09;;;;;;;5.38;0.95;;;;;;;16.58;100.00;102122.84;5041875;28;20033;-54
2023/05/25 07:38:34;;;;;;;3.50;1.98;;;;;;;16.86;100.00;102117.59;5038986;28;20514;-54
2023/05/25 07:41:00;;;;;;;5.20;0.98;;;;;;;16.85;100.00;102115.09;5046933;28;20036;-53
2023/05/25 07:43:25;;;;;;;3.53;0.93;;;;;;;16.79;100.00;102122.88;5033758;28;20321;-56
2023/05/25 07:45:51;;;;;;;3.92;1.55;;;;;;;16.83;100.00;102126.00;5034148;28;20041;-54
2023/05/25 07:48:16;;;;;;;6.43;1.20;;;;;;;16.91;100.00;102120.53;5037010;28;20041;-52
2023/05/25 07:50:41;;;;;;;7.53;1.10;;;;;;;16.95;100.00;102128.97;5035605;28;20035;-52
2023/05/25 07:53:07;;;;;;;4.93;0.90;;;;;;;17.01;100.00;102130.88;5039304;28;20029;-52
2023/05/25 07:55:32;;;;;;;4.05;0.45;;;;;;;17.17;100.00;102127.94;5046076;28;20032;-60
2023/05/25 07:57:57;;;;;;;8.75;1.00;;;;;;;17.43;100.00;102134.50;5044540;28;20052;-54
2023/05/25 08:00:23;;;;;;;3.28;0.60;;;;;;;17.41;100.00;102132.00;5043803;28;20120;-54
2023/05/25 08:02:48;;;;;;;4.35;1.20;;;;;;;17.42;100.00;102132.84;5044794;28;20535;-56
2023/05/25 08:05:14;;;;;;;9.82;2.42;;;;;;;17.50;100.00;102130.00;5045878;28;20056;-58
2023/05/25 08:07:39;;;;;;;2.38;1.27;;;;;;;17.61;100.00;102134.81;5046405;28;20035;-50
2023/05/25 08:10:05;;;;;;;4.13;0.77;;;;;;;17.73;100.00;102137.75;5045900;28;20021;-54
2023/05/25 08:12:31;;;;;;;3.03;0.52;;;;;;;17.65;100.00;102137.94;5043909;28;20040;-49
2023/05/25 08:14:57;;;;;;;2.85;0.65;;;;;;;17.60;100.00;102143.88;5043286;28;20037;-49
2023/05/25 08:17:22;;;;;;;3.83;0.70;;;;;;;17.66;100.00;102134.25;5047598;28;20541;-52
2023/05/25 08:19:48;;;;;;;4.10;0.70;;;;;;;17.72;100.00;102133.44;5037497;28;20043;-52
2023/05/25 08:22:13;;;;;;;4.78;1.08;;;;;;;17.92;100.00;102141.63;5038019;28;20030;-55
2023/05/25 08:24:38;;;;;;;2.97;1.27;;;;;;;17.94;100.00;102136.91;5045513;28;20041;-53
2023/05/25 08:27:04;;;;;;;4.70;0.45;;;;;;;17.86;100.00;102150.44;5041946;28;20033;-54
2023/05/25 08:29:30;;;;;;;2.90;0.68;;;;;;;17.96;100.00;102145.56;5037133;28;20047;-53
2023/05/25 08:31:55;;;;;;;9.90;1.02;;;;;;;18.22;100.00;102154.75;5040628;28;20401;-49
2023/05/25 08:34:20;;;;;;;5.00;1.08;;;;;;;18.37;100.00;102152.72;5021668;28;20038;-56
2023/05/25 08:36:49;;;;;;;5.50;1.77;;;;;;;18.56;100.00;102145.78;5046753;28;20065;-52
2023/05/25 08:39:15;;;;;;;14.65;2.88;;;;;;;18.68;100.00;102148.66;5038712;28;20473;-54
2023/05/25 08:41:43;;;;;;;7.85;0.90;;;;;;;18.80;100.00;102149.75;5040753;28;20083;-54
2023/05/25 08:44:09;;;;;;;2.47;1.00;;;;;;;18.76;100.00;102151.19;5039420;28;20037;-53
2023/05/25 08:46:35;;;;;;;5.10;1.15;;;;;;;18.74;100.00;102153.22;5039400;28;20382;-57
2023/05/25 08:49:08;;;;;;;2.22;0.68;;;;;;;19.00;100.00;102151.63;5046893;28;20501;-58
2023/05/25 08:51:53;;;;;;;3.50;1.08;;;;;;;19.17;100.00;102142.09;5038172;28;20029;-54
2023/05/25 08:54:25;;;;;;;8.07;0.95;;;;;;;19.01;100.00;102153.28;5042777;28;20401;-57
2023/05/25 08:57:15;;;;;;;3.88;1.15;;;;;;;18.68;100.00;102145.97;5037864;28;20375;-52
2023/05/25 08:59:50;;;;;;;4.78;1.50;;;;;;;18.39;100.00;102145.31;5031713;28;20506;-51
2023/05/25 09:02:25;;;;;;;7.90;0.90;;;;;;;18.69;100.00;102147.63;5043719;28;20218;-54
2023/05/25 09:04:51;;;;;;;5.53;1.10;;;;;;;19.03;100.00;102145.84;5043084;28;20040;-55
2023/05/25 09:07:16;;;;;;;5.13;1.40;;;;;;;19.09;100.00;102151.22;5040464;28;20091;-51
2023/05/25 09:09:42;;;;;;;4.82;0.80;;;;;;;18.74;100.00;102148.69;5041485;28;20432;-54
2023/05/25 09:12:08;;;;;;;3.65;0.68;;;;;;;19.03;100.00;102152.03;5043416;28;20044;-55
2023/05/25 09:14:36;;;;;;;5.00;1.00;;;;;;;19.15;100.00;102145.03;5038674;28;20131;-50
2023/05/25 09:17:02;;;;;;;4.82;1.85;;;;;;;19.31;100.00;102143.75;5036629;28;20044;-52
2023/05/25 09:19:27;;;;;;;3.67;0.80;;;;;;;19.50;100.00;102152.00;5034895;28;20033;-51
2023/05/25 09:21:53;;;;;;;7.28;0.70;;;;;;;19.48;100.00;102148.69;5042686;28;20116;-49
2023/05/25 09:24:21;;;;;;;6.55;2.05;;;;;;;19.67;100.00;102152.41;5039819;28;20113;-51
2023/05/25 09:26:48;;;;;;;2.53;1.50;;;;;;;19.94;100.00;102153.16;5044664;28;20037;-49
2023/05/25 09:29:14;;;;;;;4.22;1.40;;;;;;;20.03;100.00;102151.84;5039409;28;20037;-55
2023/05/25 09:31:39;;;;;;;6.47;2.22;;;;;;;20.24;100.00;102159.66;5045697;28;20134;-50
2023/05/25 09:34:10;;;;;;;3.35;1.35;;;;;;;20.46;100.00;102162.84;5049462;28;20561;-60
2023/05/25 09:36:39;;;;;;;4.20;1.48;;;;;;;20.64;100.00;102167.53;5046671;28;20032;-54
2023/05/25 09:39:07;;;;;;;6.30;1.40;;;;;;;20.84;100.00;102158.50;5036321;28;20041;-56
2023/05/25 09:41:33;;;;;;;6.55;2.22;;;;;;;20.16;100.00;102157.22;5036803;28;20021;-52
2023/05/25 09:44:00;;;;;;;3.25;1.10;;;;;;;19.93;100.00;102160.41;5034500;28;20045;-52
2023/05/25 09:46:26;;;;;;;6.72;1.30;;;;;;;20.03;100.00;102163.47;5045566;28;20390;-54
2023/05/25 09:48:52;;;;;;;7.90;2.45;;;;;;;19.69;100.00;102171.84;5038879;28;20044;-56
2023/05/25 09:51:18;;;;;;;5.50;1.45;;;;;;;19.65;100.00;102168.75;5046371;28;20040;-54
2023/05/25 09:53:44;;;;;;;3.00;1.27;;;;;;;20.20;100.00;102166.50;5043239;28;20041;-53
2023/05/25 09:56:12;;;;;;;3.08;1.40;;;;;;;20.49;100.00;102167.78;5046025;28;20449;-58
2023/05/25 09:58:38;;;;;;;4.10;1.95;;;;;;;20.42;100.00;102168.88;5045158;28;20084;-54
2023/05/25 10:01:04;;;;;;;7.28;1.98;;;;;;;20.45;100.00;102169.28;5036186;28;20052;-52
2023/05/25 10:03:30;;;;;;;4.78;1.90;;;;;;;20.59;100.00;102172.75;5048211;28;20060;-54
2023/05/25 10:05:56;;;;;;;3.40;1.58;;;;;;;20.42;100.00;102172.41;5045816;28;20025;-53
2023/05/25 10:08:24;;;;;;;9.30;1.77;;;;;;;20.82;100.00;102169.47;5045516;28;20397;-49
2023/05/25 10:10:49;;;;;;;4.40;0.90;;;;;;;20.77;100.00;102163.09;5040056;28;20033;-52
2023/05/25 10:13:23;;;;;;;4.82;0.98;;;;;;;20.44;100.00;102181.09;5041668;28;20080;-55
2023/05/25 10:15:53;;;;;;;4.20;1.27;;;;;;;20.70;100.00;102187.38;5047526;28;20061;-54
2023/05/25 10:18:24;;;;;;;2.03;1.13;;;;;;;20.51;100.00;102172.16;5036661;28;20037;-58
2023/05/25 10:20:54;;;;;;;7.70;1.63;;;;;;;20.36;100.00;102177.81;5039243;28;20040;-56
2023/05/25 10:23:21;;;;;;;3.72;0.75;;;;;;;20.37;100.00;102182.19;5041924;28;20036;-49
2023/05/25 10:25:49;;;;;;;6.57;0.90;;;;;;;20.72;100.00;102179.09;5018778;28;20131;-51
2023/05/25 10:28:27;;;;;;;4.38;1.25;;;;;;;20.94;100.00;102176.88;5043226;28;20029;-54
2023/05/25 10:30:55;;;;;;;6.65;1.25;;;;;;;20.81;100.00;102183.19;5034375;28;20037;-49
2023/05/25 10:33:21;;;;;;;6.05;1.23;;;;;;;20.51;100.00;102191.84;5047134;28;20048;-55
2023/05/25 10:35:48;;;;;;;3.42;1.10;;;;;;;20.85;100.00;102177.13;5042965;28;20037;-51
2023/05/25 10:38:14;;;;;;;6.00;1.65;;;;;;;21.40;100.00;102179.22;5044496;28;20048;-56
2023/05/25 10:40:39;;;;;;;3.38;2.60;;;;;;;21.66;99.29;102171.88;5045096;28;20025;-51
2023/05/25 10:43:05;;;;;;;3.95;2.15;;;;;;;21.71;97.76;102177.44;5044401;28;20040;-55
2023/05/25 10:45:31;;;;;;;6.07;1.55;;;;;;;22.10;99.10;102178.06;5044774;28;20033;-54
2023/05/25 10:47:57;;;;;;;6.85;1.45;;;;;;;22.29;94.83;102185.09;5038528;28;20044;-56
2023/05/25 10:50:25;;;;;;;5.22;1.05;;;;;;;21.99;96.04;102183.16;5042601;28;20385;-56
2023/05/25 10:53:19;;;;;;;8.93;1.10;;;;;;;22.39;96.65;102185.38;5044745;28;20024;-57
2023/05/25 10:55:51;;;;;;;2.85;1.17;;;;;;;22.03;96.83;102180.00;5034913;28;20095;-57
2023/05/25 10:58:18;;;;;;;7.18;1.60;;;;;;;22.13;97.15;102185.69;5044420;28;20033;-53
2023/05/25 11:01:00;;;;;;;9.35;1.85;;;;;;;22.37;96.01;102195.56;5040830;28;20037;-56
2023/05/25 11:03:43;;;;;;;5.47;1.48;;;;;;;22.65;93.40;102186.88;5039261;28;20033;-61
2023/05/25 11:06:22;;;;;;;2.10;1.38;;;;;;;22.64;93.31;102187.13;5035356;28;20037;-55
2023/05/25 11:08:50;;;;;;;6.43;1.27;;;;;;;22.49;91.65;102181.31;5051252;28;20028;-51
2023/05/25 11:11:16;;;;;;;6.88;1.20;;;;;;;22.71;90.54;102182.41;5035947;28;20040;-55
2023/05/25 11:13:46;;;;;;;7.53;2.38;;;;;;;22.80;92.05;102189.16;5042706;28;20489;-51
2023/05/25 11:16:16;;;;;;;6.47;1.40;;;;;;;22.04;94.00;102185.16;5034682;28;20029;-55
2023/05/25 11:18:48;;;;;;;6.35;1.35;;;;;;;21.73;95.74;102191.53;5042859;28;20110;-54